createdAt,value
2022-09-10T00:00:43.592Z,48.59
2022-09-10T00:03:11.414Z,48.79
2022-09-10T00:05:43.805Z,48.59
2022-09-10T00:08:11.105Z,49.44
2022-09-10T00:10:42.833Z,48.60
2022-09-10T00:13:10.517Z,49.08
2022-09-10T00:15:46.970Z,49.17
2022-09-10T00:18:15.673Z,49.30
2022-09-10T00:20:43.597Z,50.11
2022-09-10T00:23:10.406Z,49.56
2022-09-10T00:25:37.141Z,49.78
2022-09-10T00:28:03.688Z,51.22
2022-09-10T00:30:30.350Z,50.57
2022-09-10T00:32:56.929Z,50.85
2022-09-10T00:35:23.965Z,50.27
2022-09-10T00:37:50.477Z,50.33
2022-09-10T00:40:17.197Z,49.79
2022-09-10T00:42:43.742Z,50.22
2022-09-10T00:45:18.798Z,49.84
2022-09-10T00:47:47.848Z,49.65
2022-09-10T00:50:37.825Z,48.87
2022-09-10T00:53:11.256Z,49.25
2022-09-10T00:55:42.573Z,48.35
2022-09-10T00:58:12.031Z,48.41
2022-09-10T01:00:41.151Z,48.27
2022-09-10T01:03:11.449Z,48.16
2022-09-10T01:05:42.489Z,48.42
2022-09-10T01:08:14.034Z,48.52
2022-09-10T01:11:06.794Z,48.16
2022-09-10T01:13:55.210Z,49.10
2022-09-10T01:16:34.794Z,48.39
2022-09-10T01:19:24.514Z,47.87
2022-09-10T01:21:51.976Z,49.15
2022-09-10T01:24:47.147Z,48.78
2022-09-10T01:27:45.955Z,49.11
2022-09-10T01:30:20.420Z,49.51
2022-09-10T01:32:59.425Z,48.97
2022-09-10T01:35:44.816Z,50.29
2022-09-10T01:38:23.547Z,48.90
2022-09-10T01:40:50.530Z,49.91
2022-09-10T01:43:17.039Z,49.74
2022-09-10T01:46:03.266Z,47.88
2022-09-10T01:48:54.811Z,49.49
2022-09-10T01:51:31.911Z,51.27
2022-09-10T01:54:14.386Z,49.77
2022-09-10T01:56:55.451Z,50.04
2022-09-10T01:59:47.799Z,49.49
2022-09-10T02:02:20.812Z,49.56
2022-09-10T02:04:50.536Z,49.47
2022-09-10T02:07:21.342Z,51.92
2022-09-10T02:09:50.803Z,49.70
2022-09-10T02:12:19.771Z,50.41
2022-09-10T02:14:51.855Z,50.83
2022-09-10T02:17:19.340Z,51.29
2022-09-10T02:19:47.643Z,51.29
2022-09-10T02:22:15.540Z,50.90
2022-09-10T02:24:44.353Z,51.09
2022-09-10T02:27:12.060Z,50.79
2022-09-10T02:29:39.936Z,51.12
2022-09-10T02:32:08.414Z,51.61
2022-09-10T02:34:36.272Z,51.58
2022-09-10T02:37:03.764Z,51.79
2022-09-10T02:39:31.020Z,52.30
2022-09-10T02:41:58.808Z,52.97
2022-09-10T02:44:26.918Z,52.56
2022-09-10T02:46:53.412Z,53.11
2022-09-10T02:49:21.157Z,49.44
2022-09-10T02:51:50.562Z,52.41
2022-09-10T02:54:19.990Z,52.42
2022-09-10T02:56:49.974Z,52.67
2022-09-10T02:59:18.053Z,52.14
2022-09-10T03:01:44.799Z,51.90
2022-09-10T03:04:11.392Z,51.69
2022-09-10T03:06:38.239Z,51.25
2022-09-10T03:09:04.846Z,51.32
2022-09-10T03:11:31.743Z,50.17
2022-09-10T03:13:58.594Z,50.00
2022-09-10T03:16:25.221Z,49.68
2022-09-10T03:18:52.418Z,50.01
2022-09-10T03:21:21.646Z,50.11
2022-09-10T03:23:50.785Z,49.85
2022-09-10T03:26:19.033Z,50.59
2022-09-10T03:28:46.685Z,50.68
2022-09-10T03:31:14.058Z,50.50
2022-09-10T03:33:41.373Z,50.50
2022-09-10T03:36:09.708Z,50.72
2022-09-10T03:38:36.321Z,50.64
2022-09-10T03:41:03.196Z,50.59
2022-09-10T03:43:30.226Z,50.88
2022-09-10T03:45:57.007Z,50.68
2022-09-10T03:48:23.998Z,50.96
2022-09-10T03:50:53.281Z,51.21
2022-09-10T03:53:20.186Z,51.34
2022-09-10T03:55:48.022Z,51.44
2022-09-10T03:58:16.139Z,51.67
2022-09-10T04:00:43.072Z,51.43
2022-09-10T04:03:11.151Z,51.39
2022-09-10T04:05:44.074Z,50.56
2022-09-10T04:08:12.265Z,50.63
2022-09-10T04:10:44.117Z,50.50
2022-09-10T04:13:11.469Z,51.04
2022-09-10T04:15:38.201Z,50.86
2022-09-10T04:18:06.226Z,50.70
2022-09-10T04:20:33.985Z,50.62
2022-09-10T04:23:00.614Z,51.03
2022-09-10T04:25:27.799Z,51.24
2022-09-10T04:27:54.626Z,50.90
2022-09-10T04:30:21.103Z,50.99
2022-09-10T04:32:47.613Z,49.29
2022-09-10T04:35:17.197Z,51.00
2022-09-10T04:37:43.806Z,51.10
2022-09-10T04:40:10.765Z,51.59
2022-09-10T04:45:13.606Z,52.02
2022-09-10T04:47:40.205Z,49.71
2022-09-10T04:50:07.344Z,52.00
2022-09-10T04:52:33.899Z,52.51
2022-09-10T04:55:00.331Z,52.33
2022-09-10T04:57:26.676Z,49.72
2022-09-10T04:59:54.043Z,52.52
2022-09-10T05:02:20.724Z,52.90
2022-09-10T05:04:47.235Z,53.05
2022-09-10T05:07:13.591Z,50.45
2022-09-10T05:09:40.132Z,52.76
2022-09-10T05:12:06.551Z,50.17
2022-09-10T05:14:33.966Z,53.06
2022-09-10T05:17:01.312Z,52.84
2022-09-10T05:19:27.720Z,53.25
2022-09-10T05:21:54.203Z,53.49
2022-09-10T05:24:21.178Z,51.01
2022-09-10T05:26:47.616Z,53.19
2022-09-10T05:29:14.168Z,50.65
2022-09-10T05:31:41.048Z,53.33
2022-09-10T05:34:08.449Z,53.89
2022-09-10T05:36:35.590Z,54.01
2022-09-10T05:39:03.786Z,54.14
2022-09-10T05:41:31.209Z,54.00
2022-09-10T05:43:58.649Z,54.47
2022-09-10T05:46:25.437Z,54.29
2022-09-10T05:48:54.256Z,54.47
2022-09-10T05:51:21.838Z,54.36
2022-09-10T05:53:48.369Z,54.13
2022-09-10T05:56:14.756Z,51.83
2022-09-10T05:58:41.360Z,53.76
2022-09-10T06:01:07.884Z,54.12
2022-09-10T06:03:34.525Z,51.42
2022-09-10T06:06:00.986Z,53.77
2022-09-10T06:08:27.373Z,51.21
2022-09-10T06:11:05.858Z,53.05
2022-09-10T06:13:33.936Z,54.18
2022-09-10T06:16:00.998Z,53.99
2022-09-10T06:18:28.077Z,54.10
2022-09-10T06:21:06.162Z,53.27
2022-09-10T06:23:33.082Z,54.22
2022-09-10T06:26:04.396Z,53.35
2022-09-10T06:28:33.097Z,54.26
2022-09-10T06:31:00.251Z,54.07
2022-09-10T06:33:26.941Z,54.08
2022-09-10T06:35:57.762Z,53.67
2022-09-10T06:38:25.212Z,53.67
2022-09-10T06:40:56.050Z,53.94
2022-09-10T06:43:23.641Z,53.75
2022-09-10T06:45:52.297Z,53.46
2022-09-10T06:48:47.641Z,53.50
2022-09-10T06:51:14.181Z,53.58
2022-09-10T06:53:42.902Z,53.21
2022-09-10T06:56:13.070Z,53.11
2022-09-10T06:58:39.935Z,53.55
2022-09-10T07:01:25.815Z,52.39
2022-09-10T07:03:57.044Z,53.33
2022-09-10T07:06:24.730Z,53.01
2022-09-10T07:08:58.232Z,52.85
2022-09-10T07:11:26.838Z,53.14
2022-09-10T07:13:53.781Z,53.10
2022-09-10T07:16:21.975Z,52.37
2022-09-10T07:18:50.383Z,52.32
2022-09-10T07:21:18.421Z,52.13
2022-09-10T07:23:46.498Z,52.10
2022-09-10T07:26:15.735Z,51.99
2022-09-10T07:28:42.892Z,51.58
2022-09-10T07:31:23.559Z,51.51
2022-09-10T07:33:50.587Z,51.14
2022-09-10T07:36:18.079Z,50.77
2022-09-10T07:38:44.927Z,51.04
2022-09-10T07:41:13.235Z,50.81
2022-09-10T07:43:41.683Z,50.90
2022-09-10T07:46:12.485Z,50.91
2022-09-10T07:48:41.447Z,51.05
2022-09-10T07:51:09.140Z,50.83
2022-09-10T07:53:35.987Z,50.66
2022-09-10T07:56:05.520Z,51.02
2022-09-10T07:58:33.622Z,50.92
2022-09-10T08:01:00.331Z,50.53
2022-09-10T08:03:27.821Z,50.81
2022-09-10T08:05:55.082Z,50.91
2022-09-10T08:08:22.427Z,50.39
2022-09-10T08:10:49.760Z,49.71
2022-09-10T08:13:16.519Z,49.55
2022-09-10T08:15:46.107Z,49.79
2022-09-10T08:18:13.680Z,49.56
2022-09-10T08:20:40.783Z,49.04
2022-09-10T08:23:07.946Z,49.13
2022-09-10T08:25:34.925Z,48.92
2022-09-10T08:28:01.403Z,48.58
2022-09-10T08:30:28.169Z,48.38
2022-09-10T08:32:56.146Z,48.26
2022-09-10T08:35:22.653Z,48.19
2022-09-10T08:37:49.201Z,48.61
2022-09-10T08:40:16.434Z,49.21
2022-09-10T08:42:49.333Z,48.61
2022-09-10T08:45:31.505Z,48.91
2022-09-10T08:48:05.973Z,48.93
2022-09-10T08:50:46.625Z,48.92
2022-09-10T08:53:28.159Z,49.00
2022-09-10T08:55:58.708Z,49.12
2022-09-10T08:58:35.934Z,49.37
2022-09-10T09:01:05.083Z,49.16
2022-09-10T09:03:37.997Z,49.01
2022-09-10T09:06:09.060Z,49.15
2022-09-10T09:08:48.634Z,49.15
2022-09-10T09:11:21.026Z,48.94
2022-09-10T09:14:16.987Z,49.01
2022-09-10T09:16:51.015Z,48.52
2022-09-10T09:19:23.313Z,48.54
2022-09-10T09:21:53.181Z,48.24
2022-09-10T09:24:48.912Z,48.71
2022-09-10T09:27:20.197Z,48.36
2022-09-10T09:29:56.435Z,48.57
2022-09-10T09:32:24.017Z,48.58
2022-09-10T09:34:56.785Z,48.54
2022-09-10T09:37:27.187Z,48.29
2022-09-10T09:40:05.782Z,48.27
2022-09-10T09:42:45.592Z,47.86
2022-09-10T09:45:28.331Z,47.47
2022-09-10T09:47:55.887Z,47.58
2022-09-10T09:50:23.061Z,47.47
2022-09-10T09:52:55.216Z,47.90
2022-09-10T09:55:34.982Z,48.46
2022-09-10T09:58:33.741Z,48.82
2022-09-10T10:01:09.734Z,49.65
2022-09-10T10:03:53.465Z,47.77
2022-09-10T10:06:34.717Z,47.64
2022-09-10T10:09:06.832Z,48.22
2022-09-10T10:11:45.197Z,49.26
2022-09-10T10:14:20.151Z,48.55
2022-09-10T10:16:52.266Z,48.22
2022-09-10T10:19:36.648Z,48.30
2022-09-10T10:22:17.073Z,48.49
2022-09-10T10:24:45.210Z,48.57
2022-09-10T10:27:26.673Z,48.25
2022-09-10T10:30:22.190Z,48.58
2022-09-10T10:32:57.008Z,48.81
2022-09-10T10:35:42.899Z,48.49
2022-09-10T10:38:33.320Z,48.47
2022-09-10T10:41:24.650Z,49.50
2022-09-10T10:44:13.355Z,49.45
2022-09-10T10:46:45.914Z,49.74
2022-09-10T10:49:32.270Z,49.08
2022-09-10T10:52:10.571Z,49.30
2022-09-10T10:54:43.598Z,49.25
2022-09-10T10:57:53.463Z,49.37
2022-09-10T11:00:20.773Z,49.00
2022-09-10T11:03:16.059Z,48.74
2022-09-10T11:05:53.827Z,49.04
2022-09-10T11:08:35.044Z,48.96
2022-09-10T11:11:18.775Z,48.72
2022-09-10T11:13:57.807Z,48.82
2022-09-10T11:16:40.290Z,48.84
2022-09-10T11:19:35.787Z,48.96
2022-09-10T11:22:14.460Z,48.97
2022-09-10T11:24:50.247Z,49.68
2022-09-10T11:27:27.724Z,50.37
2022-09-10T11:30:10.097Z,50.32
2022-09-10T11:33:05.788Z,50.45
2022-09-10T11:35:48.251Z,50.41
2022-09-10T11:38:29.186Z,50.35
2022-09-10T11:41:04.380Z,50.41
2022-09-10T11:43:44.027Z,50.69
2022-09-10T11:46:15.283Z,49.83
2022-09-10T11:48:50.900Z,49.40
2022-09-10T11:51:24.325Z,50.02
2022-09-10T11:53:57.303Z,48.90
2022-09-10T11:57:01.060Z,48.90
2022-09-10T11:59:49.441Z,49.34
2022-09-10T12:02:40.988Z,49.85
2022-09-10T12:05:31.360Z,49.49
2022-09-10T12:07:57.714Z,50.14
2022-09-10T12:10:53.295Z,49.06
2022-09-10T12:13:19.934Z,49.79
2022-09-10T12:16:02.583Z,49.78
2022-09-10T12:18:42.751Z,50.64
2022-09-10T12:21:20.227Z,49.16
2022-09-10T12:23:49.120Z,49.27
2022-09-10T12:26:21.071Z,48.24
2022-09-10T12:28:53.650Z,47.65
2022-09-10T12:31:21.621Z,46.81
2022-09-10T12:33:48.153Z,46.75
2022-09-10T12:36:35.760Z,47.09
2022-09-10T12:39:22.670Z,47.40
2022-09-10T12:41:49.823Z,47.69
2022-09-10T12:44:36.729Z,47.86
2022-09-10T12:47:15.845Z,47.71
2022-09-10T12:49:57.484Z,47.52
2022-09-10T12:52:52.728Z,47.59
2022-09-10T12:55:36.196Z,47.20
2022-09-10T12:58:30.354Z,47.26
2022-09-10T13:00:58.128Z,47.10
2022-09-10T13:03:27.931Z,47.46
2022-09-10T13:05:57.722Z,47.49
2022-09-10T13:08:28.043Z,46.97
2022-09-10T13:10:58.380Z,46.84
2022-09-10T13:13:39.979Z,46.95
2022-09-10T13:16:13.929Z,46.51
2022-09-10T13:18:42.077Z,46.27
2022-09-10T13:21:40.756Z,47.57
2022-09-10T13:24:31.784Z,47.91
2022-09-10T13:27:20.557Z,49.31
2022-09-10T13:29:56.345Z,50.98
2022-09-10T13:32:34.454Z,50.22
2022-09-10T13:35:21.974Z,49.89
2022-09-10T13:37:54.483Z,51.52
2022-09-10T13:41:07.016Z,50.26
2022-09-10T13:44:01.499Z,50.64
2022-09-10T13:46:35.267Z,51.97
2022-09-10T13:49:26.373Z,50.92
2022-09-10T13:51:56.609Z,51.74
2022-09-10T13:54:36.597Z,49.93
2022-09-10T13:57:20.236Z,49.64
2022-09-10T13:59:50.600Z,49.42
2022-09-10T14:02:19.798Z,48.19
2022-09-10T14:04:46.556Z,47.49
2022-09-10T14:07:17.050Z,46.34
2022-09-10T14:09:49.376Z,46.31
2022-09-10T14:12:19.284Z,44.83
2022-09-10T14:14:49.995Z,44.66
2022-09-10T14:17:23.224Z,44.70
2022-09-10T14:19:58.028Z,44.82
2022-09-10T14:22:26.469Z,44.84
2022-09-10T14:24:53.756Z,44.60
2022-09-10T14:27:26.101Z,43.69
2022-09-10T14:29:56.432Z,43.52
2022-09-10T14:32:22.838Z,44.20
2022-09-10T14:34:49.257Z,43.47
2022-09-10T14:37:44.989Z,44.99
2022-09-10T14:40:20.846Z,44.73
2022-09-10T14:42:52.509Z,44.32
2022-09-10T14:45:46.535Z,45.08
2022-09-10T14:48:42.352Z,44.57
2022-09-10T14:51:11.024Z,45.09
2022-09-10T14:53:37.939Z,45.72
2022-09-10T14:56:10.017Z,45.63
2022-09-10T14:58:36.442Z,45.33
2022-09-10T15:01:04.158Z,45.82
2022-09-10T15:03:30.557Z,45.48
2022-09-10T15:05:56.982Z,45.46
2022-09-10T15:08:23.418Z,46.14
2022-09-10T15:10:50.259Z,45.41
2022-09-10T15:13:18.945Z,45.44
2022-09-10T15:15:50.094Z,45.05
2022-09-10T15:18:17.338Z,45.46
2022-09-10T15:20:43.765Z,44.58
2022-09-10T15:23:11.595Z,44.09
2022-09-10T15:25:44.762Z,44.84
2022-09-10T15:28:11.166Z,44.85
2022-09-10T15:30:37.681Z,44.83
2022-09-10T15:33:05.863Z,44.76
2022-09-10T15:35:32.370Z,44.72
2022-09-10T15:38:01.441Z,44.21
2022-09-10T15:40:28.107Z,44.78
2022-09-10T15:42:54.736Z,45.00
2022-09-10T19:45:49.431Z,51.42
2022-09-10T19:48:16.023Z,51.47
2022-09-10T19:50:45.256Z,51.56
2022-09-10T19:53:12.318Z,52.47
2022-09-10T19:55:41.944Z,52.48
2022-09-10T19:58:13.152Z,52.09
2022-09-10T20:00:46.922Z,52.49
2022-09-10T20:03:14.555Z,52.09
2022-09-10T20:05:44.579Z,51.94
2022-09-10T20:08:11.100Z,52.23
2022-09-10T20:10:39.133Z,52.35
2022-09-10T20:13:06.137Z,52.65
2022-09-10T20:15:32.853Z,52.54
2022-09-10T20:18:00.967Z,52.51
2022-09-10T20:20:30.320Z,52.25
2022-09-10T20:23:01.382Z,52.47
2022-09-10T20:25:31.693Z,52.35
2022-09-10T20:27:58.641Z,52.36
2022-09-10T20:30:26.024Z,52.57
2022-09-10T20:32:52.624Z,52.45
2022-09-10T20:35:19.125Z,52.79
2022-09-10T20:37:51.651Z,50.28
2022-09-10T20:40:18.340Z,52.53
2022-09-10T20:42:44.804Z,49.95
2022-09-10T20:45:11.417Z,52.70
2022-09-10T20:47:43.131Z,52.62
2022-09-10T20:50:13.744Z,52.61
2022-09-10T20:52:41.928Z,53.07
2022-09-10T20:55:10.105Z,53.57
2022-09-10T20:57:36.551Z,53.20
2022-09-10T21:00:03.108Z,50.54
2022-09-10T21:02:29.719Z,53.27
2022-09-10T21:04:56.602Z,53.57
2022-09-10T21:07:25.828Z,53.99
2022-09-10T21:09:52.532Z,53.52
2022-09-10T21:12:19.099Z,53.61
2022-09-10T21:14:48.548Z,53.49
2022-09-10T21:17:17.780Z,53.73
2022-09-10T21:19:44.308Z,53.83
2022-09-10T21:22:10.989Z,53.51
2022-09-10T21:24:39.682Z,53.91
2022-09-10T21:27:06.436Z,53.99
2022-09-10T21:29:36.332Z,53.96
2022-09-10T21:32:06.140Z,55.63
2022-09-10T21:34:37.556Z,56.17
2022-09-10T21:37:04.201Z,56.11
2022-09-10T21:39:30.662Z,55.65
2022-09-10T21:42:00.313Z,52.35
2022-09-10T21:44:26.933Z,55.01
2022-09-10T21:46:53.418Z,54.54
2022-09-10T21:49:23.033Z,54.38
2022-09-10T21:51:52.834Z,54.22
2022-09-10T21:54:28.297Z,54.03
2022-09-10T21:56:56.008Z,53.68
2022-09-10T21:59:27.772Z,53.57
2022-09-10T22:01:54.570Z,53.65
2022-09-10T22:04:23.128Z,53.09
2022-09-10T22:06:50.672Z,53.22
2022-09-10T22:09:19.695Z,52.99
2022-09-10T22:11:50.302Z,52.75
2022-09-10T22:14:19.196Z,52.59
2022-09-10T22:16:45.950Z,52.00
2022-09-10T22:19:18.901Z,51.96
2022-09-10T22:21:46.318Z,51.72
2022-09-10T22:24:20.426Z,51.71
2022-09-10T22:26:47.493Z,51.44
2022-09-10T22:29:20.418Z,51.52
2022-09-10T22:31:47.866Z,51.27
2022-09-10T22:34:16.020Z,51.23
2022-09-10T22:36:44.913Z,51.53
2022-09-10T22:39:13.037Z,51.26
2022-09-10T22:41:40.443Z,51.27
2022-09-10T22:44:07.543Z,51.30
2022-09-10T22:46:35.661Z,50.98
2022-09-10T22:49:02.839Z,50.89
2022-09-10T22:51:34.514Z,50.87
2022-09-10T22:54:01.476Z,50.76
2022-09-10T22:56:28.576Z,51.06
2022-09-10T22:58:57.947Z,50.88
2022-09-10T23:01:27.758Z,50.63
2022-09-10T23:03:59.233Z,50.59
2022-09-10T23:06:28.352Z,50.60
2022-09-10T23:08:58.132Z,50.69
2022-09-10T23:11:27.899Z,50.84
2022-09-10T23:13:57.532Z,50.50
2022-09-10T23:16:36.573Z,50.43
2022-09-10T23:19:05.932Z,50.60
2022-09-10T23:21:34.406Z,50.84
2022-09-10T23:24:03.831Z,50.46
2022-09-10T23:26:30.532Z,50.54
2022-09-10T23:28:57.529Z,50.70
2022-09-10T23:31:26.249Z,50.51
2022-09-10T23:33:58.567Z,50.62
2022-09-10T23:36:26.867Z,50.67
2022-09-10T23:38:53.877Z,50.59
2022-09-10T23:41:20.594Z,50.43
2022-09-10T23:43:47.573Z,50.62
2022-09-10T23:46:14.486Z,50.53
2022-09-10T23:48:45.985Z,50.46
2022-09-10T23:51:14.400Z,50.56
2022-09-10T23:53:41.230Z,50.52
2022-09-10T23:56:08.652Z,50.29
2022-09-10T23:58:35.503Z,50.42
